Time;durP1;ratioP1;P1;durP2;ratioP2;P2;SDS_P1;SDS_P2;PMS_P1;PMS_P2;Temp;Humidity;BMP_temperature;BMP_pressure;BME280_temperature;BME280_humidity;BME280_pressure;Samples;Min_cycle;Max_cycle;Signal;HPM_P1;HPM_P2
2022/03/26 00:00:46;;;;;;;;;61.25;46.75;;;;;13.71;33.29;99801.72;6290661;27;96603;-64
2022/03/26 00:03:49;;;;;;;;;63.00;49.00;;;;;13.71;33.24;99805.25;6290469;27;97025;-66
2022/03/26 00:06:53;;;;;;;;;60.60;47.20;;;;;13.74;33.11;99810.22;6291167;27;96386;-65
2022/03/26 00:09:56;;;;;;;;;62.00;48.00;;;;;13.77;32.92;99814.38;6290537;27;97578;-65
2022/03/26 00:12:59;;;;;;;;;64.40;48.00;;;;;13.81;32.64;99807.47;6289724;27;98049;-65
2022/03/26 00:16:06;;;;;;;;;63.00;47.00;;;;;13.79;32.91;99801.44;6290534;27;96992;-65
2022/03/26 00:19:10;;;;;;;;;61.25;46.00;;;;;13.77;32.83;99801.66;6291878;27;97450;-65
2022/03/26 00:22:13;;;;;;;;;60.00;45.00;;;;;13.76;32.60;99793.75;6291093;27;97276;-65
2022/03/26 00:25:17;;;;;;;;;61.25;47.00;;;;;13.79;32.59;99793.28;6272015;27;97386;-65
2022/03/26 00:28:20;;;;;;;;;59.50;46.00;;;;;13.79;32.67;99793.28;6271364;27;97423;-66
2022/03/26 00:31:25;;;;;;;;;60.00;46.00;;;;;13.79;32.69;99786.00;6288682;27;97489;-65
2022/03/26 00:34:28;;;;;;;;;61.00;46.00;;;;;13.77;32.73;99784.56;6288085;27;96789;-65
2022/03/26 00:37:31;;;;;;;;;61.80;47.00;;;;;13.59;32.75;99769.06;6272043;27;96847;-66
2022/03/26 00:40:35;;;;;;;;;59.50;46.00;;;;;13.61;33.06;99780.50;6258046;27;97926;-65
2022/03/26 00:43:39;;;;;;;;;59.60;46.00;;;;;13.66;33.04;99787.97;6252578;27;98602;-65
2022/03/26 00:46:46;;;;;;;;;59.80;46.00;;;;;13.59;32.86;99788.03;6271287;27;96625;-65
2022/03/26 00:49:49;;;;;;;;;58.40;44.00;;;;;13.49;33.27;99792.28;6287882;27;96847;-65
2022/03/26 00:52:52;;;;;;;;;58.40;46.00;;;;;13.41;33.23;99782.53;6287243;27;97975;-65
2022/03/26 00:55:56;;;;;;;;;62.00;46.00;;;;;13.30;33.69;99786.75;6250893;27;99329;-65
2022/03/26 00:58:59;;;;;;;;;58.25;45.50;;;;;13.30;33.43;99783.22;6268965;27;98436;-66
2022/03/26 01:02:04;;;;;;;;;58.00;45.00;;;;;13.23;33.47;99790.56;6288407;27;97512;-64
2022/03/26 01:05:10;;;;;;;;;57.60;45.00;;;;;13.21;33.49;99796.19;6288553;27;97001;-65
2022/03/26 01:08:14;;;;;;;;;56.80;44.00;;;;;13.12;33.78;99792.06;6280114;27;96874;-66
2022/03/26 01:11:18;;;;;;;;;58.20;44.20;;;;;13.14;33.50;99790.00;6289148;27;97480;-65
2022/03/26 01:14:22;;;;;;;;;57.40;44.00;;;;;13.04;33.91;99789.59;6289104;27;96930;-66
2022/03/26 01:17:27;;;;;;;;;55.80;44.00;;;;;13.07;33.75;99791.03;6288158;27;97197;-66
2022/03/26 01:20:31;;;;;;;;;57.80;44.20;;;;;13.01;33.86;99793.53;6286382;27;97783;-65
2022/03/26 01:23:34;;;;;;;;;57.75;45.00;;;;;12.96;33.85;99787.94;6288894;27;97449;-66
2022/03/26 01:26:37;;;;;;;;;58.20;45.20;;;;;12.89;33.88;99789.88;6288116;27;97151;-66
2022/03/26 01:29:41;;;;;;;;;59.00;46.00;;;;;12.90;34.16;99793.41;6256805;27;97482;-66
2022/03/26 01:32:46;;;;;;;;;59.40;46.00;;;;;12.75;34.54;99774.72;6288569;27;96587;-66
2022/03/26 01:35:50;;;;;;;;;61.20;47.00;;;;;12.81;34.34;99784.66;6288661;27;97451;-66
2022/03/26 01:38:53;;;;;;;;;63.25;47.00;;;;;12.70;34.66;99788.06;6289019;27;97746;-66
2022/03/26 01:42:01;;;;;;;;;65.60;49.40;;;;;12.70;34.52;99788.06;6270563;27;97054;-65
2022/03/26 01:45:05;;;;;;;;;64.00;48.00;;;;;12.70;34.24;99788.06;6289716;27;96510;-66
2022/03/26 01:48:10;;;;;;;;;62.40;48.00;;;;;12.67;34.67;99785.75;6271992;27;96530;-66
2022/03/26 01:51:16;;;;;;;;;62.00;48.00;;;;;12.61;34.54;99788.50;6288939;27;96570;-66
2022/03/26 01:54:19;;;;;;;;;64.60;48.20;;;;;12.57;34.67;99796.19;6289018;27;96645;-66
2022/03/26 01:57:23;;;;;;;;;65.00;49.00;;;;;12.52;34.81;99787.88;6270241;27;96642;-66
2022/03/26 02:00:27;;;;;;;;;66.00;50.00;;;;;12.49;34.69;99796.44;6289551;27;97489;-66
2022/03/26 02:03:31;;;;;;;;;62.00;49.00;;;;;12.46;34.68;99794.16;6289115;27;97470;-66
2022/03/26 02:06:38;;;;;;;;;62.60;48.40;;;;;12.42;34.97;99798.31;6270068;27;98434;-66
2022/03/26 02:09:43;;;;;;;;;64.60;49.00;;;;;12.32;34.98;99790.63;6252293;27;98054;-65
2022/03/26 02:12:47;;;;;;;;;65.00;50.00;;;;;12.19;35.33;99795.25;6288457;27;96607;-65
2022/03/26 02:15:50;;;;;;;;;63.20;48.00;;;;;12.04;35.57;99800.88;6269210;27;97522;-65
2022/03/26 02:18:57;;;;;;;;;67.00;51.00;;;;;11.91;35.58;99801.72;6287037;27;96615;-66
2022/03/26 02:22:02;;;;;;;;;65.80;51.00;;;;;11.84;36.13;99802.75;6287085;27;97681;-66
2022/03/26 02:25:07;;;;;;;;;67.25;50.00;;;;;11.71;36.14;99798.16;6286256;27;96459;-66
2022/03/26 02:28:10;;;;;;;;;66.00;50.50;;;;;11.71;36.44;99795.44;6287019;27;97865;-66
2022/03/26 02:31:14;;;;;;;;;63.50;50.00;;;;;11.71;36.54;99804.38;6286241;27;96478;-67
2022/03/26 02:34:17;;;;;;;;;66.50;50.75;;;;;11.64;36.65;99795.44;6284251;27;96993;-66
2022/03/26 02:37:23;;;;;;;;;67.00;51.00;;;;;11.59;36.52;99795.22;6269178;27;97222;-66
2022/03/26 02:40:26;;;;;;;;;67.25;51.00;;;;;11.55;36.92;99793.13;6269446;27;96910;-66
2022/03/26 02:43:29;;;;;;;;;68.00;52.00;;;;;11.51;36.74;99794.59;6285006;27;97194;-66
2022/03/26 02:46:37;;;;;;;;;66.00;51.40;;;;;11.46;36.76;99791.66;6269484;27;97209;-66
2022/03/26 02:49:41;;;;;;;;;66.60;51.00;;;;;11.48;36.59;99792.31;6259539;27;98040;-66
2022/03/26 02:52:48;;;;;;;;;66.50;50.50;;;;;11.50;36.74;99795.63;6280573;27;97520;-65
2022/03/26 02:55:52;;;;;;;;;66.20;50.80;;;;;11.52;36.75;99796.25;6284954;27;97168;-65
2022/03/26 02:58:56;;;;;;;;;66.00;51.00;;;;;11.37;36.46;99760.50;6284656;27;97483;-65
2022/03/26 03:01:59;;;;;;;;;66.25;50.75;;;;;11.58;36.38;99801.66;6267724;27;97486;-66
2022/03/26 03:05:03;;;;;;;;;64.50;51.00;;;;;11.55;36.56;99785.88;6267791;27;96768;-66
2022/03/26 03:08:08;;;;;;;;;62.00;47.25;;;;;11.58;36.36;99782.75;6286982;27;96308;-66
2022/03/26 03:11:12;;;;;;;;;64.00;49.00;;;;;11.57;36.24;99783.81;6286680;27;96956;-66
2022/03/26 03:14:16;;;;;;;;;62.00;48.67;;;;;11.59;36.07;99783.56;6285951;27;97310;-66
2022/03/26 03:17:19;;;;;;;;;60.80;48.00;;;;;11.55;36.34;99777.75;6286886;27;97348;-65
2022/03/26 03:20:23;;;;;;;;;64.00;48.00;;;;;11.61;36.13;99768.84;6286117;27;96966;-66
2022/03/26 03:23:27;;;;;;;;;63.80;48.00;;;;;11.56;36.23;99778.59;6284997;27;96953;-66
2022/03/26 03:26:31;;;;;;;;;65.40;49.40;;;;;11.46;36.41;99784.41;6290643;27;96756;-66
2022/03/26 03:29:34;;;;;;;;;63.00;47.60;;;;;11.42;36.57;99779.63;6272605;27;97031;-66
2022/03/26 03:32:38;;;;;;;;;64.75;49.00;;;;;11.38;36.43;99776.50;6290920;27;96606;-65
2022/03/26 03:35:41;;;;;;;;;64.00;49.00;;;;;11.19;36.81;99772.72;6291853;27;97402;-66
2022/03/26 03:38:46;;;;;;;;;63.00;48.60;;;;;11.17;36.70;99777.50;6273211;27;96899;-65
2022/03/26 03:41:49;;;;;;;;;63.67;50.00;;;;;11.09;37.14;99774.16;6272067;27;97540;-66
2022/03/26 03:44:52;;;;;;;;;62.00;47.40;;;;;11.15;36.96;99771.47;6267448;27;98494;-66
2022/03/26 03:47:56;;;;;;;;;63.25;49.00;;;;;11.12;36.84;99773.75;6291366;27;96928;-65
2022/03/26 03:50:59;;;;;;;;;63.00;49.00;;;;;10.99;37.19;99777.25;6290651;27;97385;-66
2022/03/26 03:54:05;;;;;;;;;64.60;48.60;;;;;10.96;37.22;99777.63;6291435;27;97433;-66
2022/03/26 03:57:08;;;;;;;;;64.40;48.00;;;;;10.92;37.45;99770.16;6290712;27;97435;-65
2022/03/26 04:00:13;;;;;;;;;63.00;48.00;;;;;10.89;37.29;99767.88;6272191;27;96836;-66
2022/03/26 04:03:17;;;;;;;;;66.00;50.60;;;;;10.79;37.44;99768.25;6290652;27;97481;-65
2022/03/26 04:06:20;;;;;;;;;64.40;49.00;;;;;10.68;37.82;99768.81;6290604;27;97040;-66
2022/03/26 04:09:25;;;;;;;;;68.00;51.00;;;;;10.64;38.01;99762.16;6271311;27;98973;-65
2022/03/26 04:12:28;;;;;;;;;63.80;50.00;;;;;10.59;38.09;99760.06;6289179;27;96905;-65
2022/03/26 04:15:31;;;;;;;;;65.67;50.00;;;;;10.51;38.21;99762.06;6282866;27;97214;-66
2022/03/26 04:18:35;;;;;;;;;63.25;49.00;;;;;10.40;38.50;99766.19;6286621;27;96740;-65
2022/03/26 04:21:38;;;;;;;;;65.40;50.40;;;;;10.43;38.45;99761.22;6269577;27;98225;-66
2022/03/26 04:24:43;;;;;;;;;64.60;50.00;;;;;10.46;38.56;99764.56;6270549;27;96735;-65
2022/03/26 04:27:47;;;;;;;;;69.80;51.00;;;;;10.30;38.60;99754.94;6287767;27;96939;-64
2022/03/26 04:30:52;;;;;;;;;64.00;49.40;;;;;10.48;38.57;99767.88;6287969;27;97187;-66
2022/03/26 04:33:55;;;;;;;;;62.80;49.00;;;;;10.55;38.12;99756.13;6285804;27;96615;-66
2022/03/26 04:36:58;;;;;;;;;64.20;48.00;;;;;10.61;37.98;99762.53;6288490;27;96897;-67
2022/03/26 04:40:05;;;;;;;;;63.00;48.00;;;;;10.61;37.88;99759.84;6248323;27;98910;-66
2022/03/26 04:43:08;;;;;;;;;64.00;49.25;;;;;10.79;37.57;99771.78;6286607;27;96832;-66
2022/03/26 04:46:11;;;;;;;;;65.60;49.60;;;;;10.81;37.55;99760.75;6270789;27;99445;-66
2022/03/26 04:49:14;;;;;;;;;66.40;51.00;;;;;10.81;37.78;99764.28;6271234;27;98413;-65
2022/03/26 04:52:18;;;;;;;;;64.00;50.60;;;;;10.86;37.92;99767.22;6270627;27;97633;-65
2022/03/26 04:55:22;;;;;;;;;67.00;51.20;;;;;10.90;37.75;99761.44;6289212;27;96968;-65
2022/03/26 04:58:26;;;;;;;;;68.80;51.00;;;;;10.85;38.07;99770.09;6270675;27;99530;-65
2022/03/26 05:01:29;;;;;;;;;67.00;52.80;;;;;10.78;38.06;99767.41;6274659;27;97580;-64
2022/03/26 05:04:32;;;;;;;;;65.00;51.00;;;;;10.71;38.37;99765.69;6287802;27;96976;-67
2022/03/26 05:07:48;;;;;;;;;67.00;51.40;;;;;10.67;38.54;99764.44;6288160;27;97567;-65
2022/03/26 05:10:53;;;;;;;;;69.00;51.80;;;;;10.69;38.01;99759.69;6288993;27;97465;-65
2022/03/26 05:13:57;;;;;;;;;69.00;52.00;;;;;10.74;38.33;99759.94;6289625;27;96878;-64
2022/03/26 05:17:00;;;;;;;;;69.80;53.00;;;;;10.64;38.48;99754.06;6253107;27;97174;-64
2022/03/26 05:20:05;;;;;;;;;70.00;52.60;;;;;10.71;38.48;99768.41;6288129;27;97552;-64
2022/03/26 05:23:08;;;;;;;;;70.60;53.20;;;;;10.73;38.61;99755.56;6268761;27;97757;-64
2022/03/26 05:26:13;;;;;;;;;72.00;55.00;;;;;10.74;38.52;99758.06;6287482;27;97226;-66
2022/03/26 05:29:16;;;;;;;;;72.40;54.80;;;;;10.72;38.77;99754.72;6288555;27;96851;-66
2022/03/26 05:32:20;;;;;;;;;70.40;53.00;;;;;10.69;38.63;99748.91;6288826;27;97437;-66
2022/03/26 05:35:23;;;;;;;;;70.40;52.00;;;;;10.70;38.74;99753.28;6287390;27;97159;-64
2022/03/26 05:38:26;;;;;;;;;72.00;53.00;;;;;10.46;38.81;99707.94;6272048;27;97045;-66
2022/03/26 05:41:32;;;;;;;;;68.40;51.00;;;;;10.72;38.63;99738.53;6287273;27;96824;-65
2022/03/26 05:44:36;;;;;;;;;67.40;52.00;;;;;10.82;38.36;99720.09;6280773;27;97523;-66
2022/03/26 05:47:43;;;;;;;;;65.80;49.00;;;;;11.15;37.91;99727.44;6267416;27;97500;-66
2022/03/26 05:50:47;;;;;;;;;64.80;50.00;;;;;11.30;37.29;99715.44;6296370;27;96613;-67
2022/03/26 05:53:50;;;;;;;;;63.00;48.00;;;;;11.53;36.88;99716.91;6285891;27;97484;-65
2022/03/26 05:56:55;;;;;;;;;63.00;49.00;;;;;11.70;36.51;99734.34;6293472;27;97194;-65
2022/03/26 05:59:58;;;;;;;;;61.40;46.20;;;;;11.96;36.07;99726.25;6285630;27;97432;-65
2022/03/26 06:03:02;;;;;;;;;59.00;44.20;;;;;12.19;35.59;99742.00;6286835;27;97618;-66
2022/03/26 06:06:05;;;;;;;;;55.00;43.40;;;;;12.42;35.16;99736.13;6286632;27;97439;-65
2022/03/26 06:09:08;;;;;;;;;57.00;44.60;;;;;12.64;34.85;99736.69;6286496;27;96595;-65
2022/03/26 06:12:13;;;;;;;;;57.60;45.60;;;;;12.88;34.50;99728.66;6281895;27;97583;-66
2022/03/26 06:15:16;;;;;;;;;56.00;43.25;;;;;13.17;33.96;99726.44;6287583;27;97558;-65
2022/03/26 06:18:40;;;;;;;;;52.20;41.20;;;;;13.41;33.38;99721.06;6268465;27;97103;-65
2022/03/26 06:21:43;;;;;;;;;54.60;41.80;;;;;13.61;33.12;99720.91;6287605;27;97406;-65
2022/03/26 06:24:46;;;;;;;;;49.00;39.00;;;;;13.93;32.60;99732.50;6268111;27;97417;-65
2022/03/26 06:27:51;;;;;;;;;52.00;41.40;;;;;14.08;32.37;99729.44;6287608;27;96504;-65
2022/03/26 06:30:54;;;;;;;;;52.40;39.80;;;;;14.24;32.07;99737.81;6287089;27;97157;-66
2022/03/26 06:33:58;;;;;;;;;49.00;38.00;;;;;14.44;31.98;99728.66;6284531;27;96647;-65
2022/03/26 06:37:01;;;;;;;;;49.00;38.40;;;;;14.50;31.78;99720.47;6274697;27;97117;-65
2022/03/26 06:40:07;;;;;;;;;48.00;38.40;;;;;14.95;31.34;99725.53;6266749;27;97219;-65
2022/03/26 06:43:12;;;;;;;;;48.50;38.00;;;;;15.15;30.91;99732.31;6264097;27;96638;-65
2022/03/26 06:46:15;;;;;;;;;48.80;38.40;;;;;15.38;30.75;99731.59;6262918;27;97168;-65
2022/03/26 06:49:19;;;;;;;;;50.00;39.50;;;;;15.59;30.29;99732.94;6268685;27;96724;-65
2022/03/26 06:52:23;;;;;;;;;46.60;38.60;;;;;15.86;29.89;99739.63;6285827;27;96700;-66
2022/03/26 06:55:27;;;;;;;;;50.00;38.00;;;;;16.09;29.40;99743.41;6267655;27;96625;-66
2022/03/26 06:58:31;;;;;;;;;52.00;41.00;;;;;16.35;28.83;99737.47;6287420;27;97028;-67
2022/03/26 07:01:35;;;;;;;;;51.60;41.20;;;;;16.44;28.55;99755.94;6268361;27;98664;-65
2022/03/26 07:04:38;;;;;;;;;55.80;43.00;;;;;16.72;28.37;99736.13;6287223;27;97094;-65
2022/03/26 07:07:44;;;;;;;;;51.25;41.00;;;;;17.01;27.95;99736.97;6287110;27;97345;-66
2022/03/26 07:10:47;;;;;;;;;54.25;43.00;;;;;17.34;27.45;99736.25;6287570;27;97653;-65
2022/03/26 07:13:52;;;;;;;;;54.25;41.00;;;;;17.65;27.11;99741.19;6287110;27;97412;-66
2022/03/26 07:16:55;;;;;;;;;52.40;42.00;;;;;17.89;26.48;99735.56;6286033;27;97398;-65
2022/03/26 07:19:58;;;;;;;;;53.00;40.00;;;;;18.02;26.06;99736.09;6260067;27;97481;-65
2022/03/26 07:23:06;;;;;;;;;51.40;41.60;;;;;18.18;26.21;99737.13;6244911;27;97122;-66
2022/03/26 07:26:10;;;;;;;;;55.80;42.80;;;;;18.50;26.05;99748.22;6262293;27;97385;-66
2022/03/26 07:29:15;;;;;;;;;53.00;42.00;;;;;18.81;25.30;99747.59;6251869;27;96592;-67
2022/03/26 07:32:22;;;;;;;;;53.00;41.00;;;;;19.11;25.12;99743.56;6280232;27;98300;-66
2022/03/26 07:35:26;;;;;;;;;52.00;41.00;;;;;19.22;24.87;99743.41;6274291;27;97362;-65
2022/03/26 07:38:29;;;;;;;;;50.00;40.00;;;;;19.60;24.78;99736.13;6284367;27;97142;-65
2022/03/26 07:41:32;;;;;;;;;51.00;40.00;;;;;19.92;24.23;99733.41;6265642;27;97473;-66
2022/03/26 07:44:37;;;;;;;;;51.67;41.00;;;;;20.38;23.89;99743.59;6285614;27;97442;-66
2022/03/26 07:47:40;;;;;;;;;50.00;40.00;;;;;20.55;23.85;99743.44;6287501;27;97096;-66
2022/03/26 07:50:44;;;;;;;;;49.60;39.00;;;;;20.72;23.45;99746.81;6267681;27;97465;-66
2022/03/26 07:53:48;;;;;;;;;50.00;39.20;;;;;20.95;23.18;99746.38;6268165;27;97275;-66
2022/03/26 07:56:51;;;;;;;;;50.00;39.00;;;;;21.27;22.91;99742.63;6249858;27;98349;-66
2022/03/26 07:59:56;;;;;;;;;48.40;39.40;;;;;21.54;23.09;99732.28;6277475;27;96886;-66
2022/03/26 08:02:59;;;;;;;;;49.60;39.00;;;;;21.89;22.91;99732.25;6285073;27;97010;-66
2022/03/26 08:06:02;;;;;;;;;43.60;35.00;;;;;22.28;22.26;99732.56;6285142;27;97104;-66
2022/03/26 08:09:10;;;;;;;;;45.00;33.00;;;;;22.58;22.10;99734.38;6269121;27;98403;-66
2022/03/26 08:12:13;;;;;;;;;45.75;36.00;;;;;22.86;21.58;99730.19;6271166;27;97193;-66
2022/03/26 08:15:18;;;;;;;;;43.60;34.00;;;;;23.19;21.53;99723.97;6290087;27;97248;-67
2022/03/26 08:18:22;;;;;;;;;38.00;33.00;;;;;23.50;21.18;99724.63;6267630;27;97129;-66
2022/03/26 08:21:25;;;;;;;;;38.00;32.25;;;;;23.67;21.35;99724.22;6257318;27;97808;-66
2022/03/26 08:24:28;;;;;;;;;41.00;33.00;;;;;23.86;21.24;99718.81;6289830;27;97359;-66
2022/03/26 08:27:31;;;;;;;;;41.60;32.00;;;;;24.11;20.97;99722.19;6288670;27;97483;-66
2022/03/26 08:30:37;;;;;;;;;35.50;30.50;;;;;24.33;20.84;99707.13;6290022;27;96662;-67
2022/03/26 08:33:40;;;;;;;;;41.40;32.00;;;;;24.64;20.32;99713.09;6291412;27;97290;-66
2022/03/26 08:36:43;;;;;;;;;41.40;32.40;;;;;24.99;20.27;99712.69;6264985;27;97264;-66
2022/03/26 08:39:46;;;;;;;;;40.00;32.00;;;;;25.32;20.02;99700.59;6272257;27;97868;-66
2022/03/26 08:42:50;;;;;;;;;38.00;32.00;;;;;25.51;19.73;99697.03;6280608;27;97465;-66
2022/03/26 08:45:54;;;;;;;;;38.50;34.00;;;;;25.36;19.65;99704.41;6271106;27;97472;-66
2022/03/26 08:48:58;;;;;;;;;40.25;32.50;;;;;25.44;19.95;99687.19;6288497;27;96651;-66
2022/03/26 08:52:01;;;;;;;;;40.00;32.00;;;;;25.42;20.01;99694.94;6247476;27;97306;-67
2022/03/26 08:55:06;;;;;;;;;35.60;31.20;;;;;25.46;20.08;99690.44;6284219;27;97662;-67
2022/03/26 08:58:10;;;;;;;;;41.00;34.80;;;;;25.57;19.98;99687.56;6281307;27;97389;-67
2022/03/26 09:01:20;;;;;;;;;37.75;32.00;;;;;25.57;20.04;99671.81;6270987;27;96824;-66
2022/03/26 09:04:23;;;;;;;;;36.00;28.80;;;;;25.79;20.10;99671.19;6292294;27;97488;-65
2022/03/26 09:07:27;;;;;;;;;36.00;29.00;;;;;25.96;19.89;99668.66;6272815;27;99470;-64
2022/03/26 09:10:30;;;;;;;;;31.40;28.00;;;;;25.85;20.36;99662.47;6271254;27;99983;-65
2022/03/26 09:13:34;;;;;;;;;30.50;26.50;;;;;26.01;20.20;99668.56;6266089;27;97212;-65
2022/03/26 09:16:39;;;;;;;;;28.25;26.00;;;;;26.03;20.30;99643.38;6288105;27;96573;-66
2022/03/26 09:19:42;;;;;;;;;32.00;27.40;;;;;26.05;20.21;99657.69;6257277;27;99599;-65
2022/03/26 09:22:45;;;;;;;;;27.00;23.60;;;;;26.28;20.02;99662.28;6268276;27;97919;-65
2022/03/26 09:25:49;;;;;;;;;28.00;26.00;;;;;26.43;19.75;99644.56;6289782;27;97151;-67
2022/03/26 09:28:52;;;;;;;;;31.60;24.00;;;;;26.63;19.67;99655.22;6271282;27;96819;-65
2022/03/26 09:31:56;;;;;;;;;32.00;26.00;;;;;26.71;19.61;99655.31;6284482;27;97424;-66
2022/03/26 09:35:00;;;;;;;;;27.00;24.00;;;;;26.95;19.39;99645.97;6253945;27;97775;-66
2022/03/26 09:38:03;;;;;;;;;27.60;22.80;;;;;27.06;19.30;99637.13;6289103;27;97734;-67
2022/03/26 09:41:07;;;;;;;;;26.00;24.00;;;;;27.44;19.20;99632.06;6290405;27;96773;-67
2022/03/26 09:44:13;;;;;;;;;31.00;26.40;;;;;27.60;18.74;99637.25;6253116;27;97965;-66
2022/03/26 09:47:18;;;;;;;;;31.20;25.00;;;;;27.42;18.83;99630.72;6269313;27;99520;-65
2022/03/26 09:50:22;;;;;;;;;31.40;27.00;;;;;26.93;19.35;99623.31;6269973;27;100572;-65
2022/03/26 09:53:26;;;;;;;;;29.00;22.20;;;;;27.30;19.63;99619.41;6291368;27;96682;-66
2022/03/26 09:56:30;;;;;;;;;28.00;25.40;;;;;27.06;19.66;99619.69;6283971;27;97368;-67
2022/03/26 09:59:33;;;;;;;;;23.75;22.75;;;;;27.27;19.52;99611.72;6289366;27;96437;-67
2022/03/26 10:02:38;;;;;;;;;25.67;23.00;;;;;27.46;19.34;99613.19;6289838;27;97248;-67
2022/03/26 10:05:42;;;;;;;;;26.00;22.20;;;;;27.77;18.92;99595.78;6270362;27;96564;-66
2022/03/26 10:08:45;;;;;;;;;20.40;18.80;;;;;27.71;18.06;99606.16;6286073;27;97440;-65
2022/03/26 10:11:48;;;;;;;;;21.00;19.00;;;;;27.83;18.11;99592.56;6287643;27;97453;-66
2022/03/26 10:14:54;;;;;;;;;23.60;20.60;;;;;28.09;17.92;99595.47;6289190;27;97973;-66
2022/03/26 10:18:09;;;;;;;;;24.40;21.00;;;;;28.14;18.18;99611.97;6287851;27;97403;-66
2022/03/26 10:21:15;;;;;;;;;27.00;22.40;;;;;28.02;18.49;99601.44;6288582;27;96660;-67
2022/03/26 10:24:25;;;;;;;;;23.40;20.60;;;;;28.08;18.30;99593.81;6270068;27;96603;-65
2022/03/26 10:27:32;;;;;;;;;22.00;19.60;;;;;28.12;17.84;99596.78;6270127;27;97424;-65
2022/03/26 10:34:11;;;;;;;;;27.00;22.00;;;;;27.99;17.64;99577.16;6258547;27;97635;-67
2022/03/26 10:37:19;;;;;;;;;23.00;20.00;;;;;27.71;18.13;99566.59;6257215;27;98374;-65
2022/03/26 10:40:28;;;;;;;;;25.50;23.00;;;;;27.80;17.87;99553.59;6258050;27;97936;-66
2022/03/26 10:43:32;;;;;;;;;21.75;20.50;;;;;28.04;18.15;99583.69;6264391;27;97669;-66
2022/03/26 10:46:47;;;;;;;;;28.40;24.00;;;;;28.17;18.15;99560.59;6251521;27;97977;-65
2022/03/26 10:49:57;;;;;;;;;24.50;23.50;;;;;27.95;18.19;99572.56;6262573;27;97222;-66
2022/03/26 10:53:06;;;;;;;;;25.00;21.25;;;;;28.01;17.67;99572.09;6265834;27;97512;-66
2022/03/26 10:56:11;;;;;;;;;25.00;23.00;;;;;28.07;18.51;99563.63;6263633;27;97514;-66
2022/03/26 10:59:14;;;;;;;;;26.00;24.00;;;;;28.14;17.93;99552.94;6262148;27;97842;-67
2022/03/26 11:02:17;;;;;;;;;30.60;24.60;;;;;28.19;17.93;99558.34;6284801;27;96980;-65
2022/03/26 11:05:23;;;;;;;;;25.40;24.40;;;;;27.71;18.19;99552.75;6245863;27;96656;-66
2022/03/26 11:08:32;;;;;;;;;27.00;22.60;;;;;27.40;18.39;99559.03;6269349;27;97449;-65
2022/03/26 11:11:37;;;;;;;;;26.40;24.40;;;;;27.63;18.71;99542.41;6270601;27;97285;-66
2022/03/26 11:14:43;;;;;;;;;25.00;23.00;;;;;27.60;18.56;99537.50;6263249;27;99115;-65
2022/03/26 11:18:02;;;;;;;;;33.00;26.80;;;;;27.66;18.58;99539.81;6275360;27;98041;-66
2022/03/26 11:21:34;;;;;;;;;28.40;25.40;;;;;27.81;18.63;99527.50;6266221;27;97523;-66
2022/03/26 11:25:10;;;;;;;;;29.20;23.20;;;;;27.75;18.52;99524.06;6267865;27;97622;-64
2022/03/26 11:28:47;;;;;;;;;25.00;22.00;;;;;27.98;18.40;99527.56;6260404;27;96459;-65
2022/03/26 11:31:58;;;;;;;;;27.00;24.20;;;;;28.06;18.15;99512.91;6240439;27;97752;-66
2022/03/26 11:35:04;;;;;;;;;28.00;25.00;;;;;28.07;18.01;99502.66;6265996;27;97024;-65
2022/03/26 11:38:13;;;;;;;;;22.40;20.40;;;;;27.30;18.10;99500.34;6284225;27;97088;-65
2022/03/26 11:41:22;;;;;;;;;27.40;22.40;;;;;27.00;18.84;99485.34;6281775;27;98078;-66
2022/03/26 11:44:26;;;;;;;;;24.00;22.00;;;;;27.11;18.55;99487.53;6286318;27;98680;-66
2022/03/26 11:51:04;;;;;;;;;19.00;17.50;;;;;26.90;17.97;99489.16;6291468;27;97431;-67
2022/03/26 11:54:15;;;;;;;;;19.00;18.00;;;;;27.27;17.86;99487.16;6268317;27;97858;-66
2022/03/26 11:57:21;;;;;;;;;18.80;18.00;;;;;27.02;18.10;99469.25;6288518;27;97938;-66
2022/03/26 12:00:24;;;;;;;;;19.20;16.60;;;;;27.51;17.73;99468.25;6288987;27;97055;-64
2022/03/26 12:03:31;;;;;;;;;18.60;17.00;;;;;27.57;17.29;99465.00;6271371;27;99433;-64
2022/03/26 12:06:42;;;;;;;;;17.20;16.20;;;;;27.04;17.57;99459.47;6286138;27;97422;-65
2022/03/26 12:09:48;;;;;;;;;15.00;14.60;;;;;26.89;17.71;99459.88;6270552;27;96674;-64
2022/03/26 12:13:01;;;;;;;;;19.00;15.00;;;;;27.12;17.73;99455.13;6287619;27;97662;-65
2022/03/26 12:16:05;;;;;;;;;15.00;13.25;;;;;26.49;17.93;99461.63;6287023;27;97389;-66
2022/03/26 12:19:08;;;;;;;;;18.00;16.00;;;;;26.42;17.86;99452.97;6286510;27;97198;-64
2022/03/26 12:22:19;;;;;;;;;16.50;14.50;;;;;26.14;18.34;99460.50;6266959;27;97391;-65
2022/03/26 12:25:39;;;;;;;;;19.00;17.00;;;;;25.50;18.97;99457.94;6284795;27;97308;-64
2022/03/26 12:28:45;;;;;;;;;19.60;15.00;;;;;25.62;19.16;99449.97;6265782;27;97368;-65
2022/03/26 12:31:51;;;;;;;;;19.00;18.00;;;;;25.93;18.93;99450.19;6267341;27;97693;-64
2022/03/26 12:34:58;;;;;;;;;18.00;18.00;;;;;25.62;19.56;99445.28;6267528;27;96600;-64
2022/03/26 12:38:04;;;;;;;;;20.60;20.00;;;;;25.48;19.69;99438.91;6254691;27;96909;-66
2022/03/26 12:41:09;;;;;;;;;22.00;18.00;;;;;25.27;19.86;99429.38;6288637;27;97638;-65
2022/03/26 12:44:17;;;;;;;;;20.50;19.00;;;;;25.36;19.81;99439.41;6268729;27;96850;-66
2022/03/26 12:47:21;;;;;;;;;21.00;18.40;;;;;25.76;19.45;99424.00;6254119;27;96644;-66
2022/03/26 12:50:25;;;;;;;;;20.00;18.00;;;;;25.88;19.33;99423.47;6270580;27;97474;-66
2022/03/26 12:53:35;;;;;;;;;16.40;15.00;;;;;25.97;18.82;99423.56;6290734;27;97484;-66
2022/03/26 12:56:40;;;;;;;;;18.00;17.00;;;;;26.12;18.94;99424.03;6289829;27;97581;-67
2022/03/26 12:59:51;;;;;;;;;16.50;15.00;;;;;26.25;18.70;99422.41;6290620;27;96635;-67
2022/03/26 13:03:05;;;;;;;;;16.00;16.00;;;;;26.24;18.31;99416.03;6290647;27;96232;-66
2022/03/26 13:06:10;;;;;;;;;15.60;14.00;;;;;26.34;18.19;99394.84;6281236;27;97798;-66
2022/03/26 13:09:14;;;;;;;;;18.00;15.00;;;;;26.55;18.19;99396.78;6253907;27;97358;-67
2022/03/26 13:12:26;;;;;;;;;18.40;16.00;;;;;26.35;17.86;99394.50;6289949;27;98032;-64
2022/03/26 13:15:29;;;;;;;;;18.80;15.00;;;;;26.56;17.91;99394.84;6289881;27;97141;-66
2022/03/26 13:18:41;;;;;;;;;15.00;14.60;;;;;26.53;17.57;99388.00;6246054;27;96558;-65
2022/03/26 13:21:47;;;;;;;;;19.75;17.75;;;;;26.17;17.95;99381.66;6250010;27;96899;-65
2022/03/26 13:24:51;;;;;;;;;17.00;15.00;;;;;26.29;17.94;99365.38;6264004;27;96877;-65
2022/03/26 13:27:55;;;;;;;;;17.33;15.00;;;;;25.92;17.97;99368.41;6252487;27;97482;-65
2022/03/26 13:30:59;;;;;;;;;19.00;16.00;;;;;25.50;18.59;99375.13;6288926;27;97407;-66
2022/03/26 13:34:10;;;;;;;;;18.00;17.40;;;;;25.48;18.81;99360.78;6270583;27;97318;-66
2022/03/26 13:37:15;;;;;;;;;16.00;15.00;;;;;25.40;19.29;99365.09;6271268;27;96511;-66
2022/03/26 13:40:32;;;;;;;;;17.40;15.00;;;;;25.24;19.37;99361.00;6270655;27;96649;-66
2022/03/26 13:43:37;;;;;;;;;17.00;15.25;;;;;25.12;19.16;99360.72;6289221;27;97064;-65
2022/03/26 13:46:41;;;;;;;;;18.40;17.60;;;;;24.96;19.46;99360.19;6274577;27;96650;-66
2022/03/26 13:49:48;;;;;;;;;22.00;18.00;;;;;24.74;19.74;99348.97;6272098;27;99233;-66
2022/03/26 13:52:53;;;;;;;;;21.00;17.80;;;;;24.84;19.68;99352.34;6292926;27;97967;-66
2022/03/26 13:55:59;;;;;;;;;17.00;15.00;;;;;24.78;19.79;99342.53;6278072;27;96678;-66
2022/03/26 13:59:06;;;;;;;;;20.00;18.00;;;;;24.76;19.82;99338.44;6270229;27;98249;-67
2022/03/26 14:02:09;;;;;;;;;19.00;17.80;;;;;24.64;19.69;99333.41;6253124;27;96676;-67
2022/03/26 14:05:25;;;;;;;;;17.80;16.00;;;;;24.60;19.80;99340.66;6268490;27;98551;-67
2022/03/26 14:08:29;;;;;;;;;20.00;16.00;;;;;24.47;19.94;99333.19;6288012;27;96589;-68
2022/03/26 14:11:32;;;;;;;;;15.00;14.00;;;;;24.31;20.17;99332.63;6288874;27;97030;-68
2022/03/26 14:14:37;;;;;;;;;15.20;15.00;;;;;24.24;19.99;99321.16;6288451;27;98039;-66
2022/03/26 14:17:40;;;;;;;;;16.40;15.40;;;;;24.29;20.09;99323.81;6252668;27;97160;-66